sensor_id;sensor_type;location;lat;lon;timestamp;temperature;humidity
20670;DHT22;10494;50.868;4.180;2024-03-23T00:54:42;8.80;99.90
20670;DHT22;10494;50.868;4.180;2024-03-23T00:57:08;8.70;99.90
20670;DHT22;10494;50.868;4.180;2024-03-23T00:59:33;8.60;99.90
20670;DHT22;10494;50.868;4.180;2024-03-23T01:01:59;8.50;99.90
20670;DHT22;10494;50.868;4.180;2024-03-23T01:04:25;8.50;99.90
20670;DHT22;10494;50.868;4.180;2024-03-23T01:06:50;8.40;99.90
20670;DHT22;10494;50.868;4.180;2024-03-23T01:09:16;8.30;99.90
20670;DHT22;10494;50.868;4.180;2024-03-23T01:11:41;8.20;99.90
20670;DHT22;10494;50.868;4.180;2024-03-23T01:14:07;8.10;99.90
20670;DHT22;10494;50.868;4.180;2024-03-23T01:16:33;8.10;99.90
20670;DHT22;10494;50.868;4.180;2024-03-23T01:18:58;8.00;99.90
20670;DHT22;10494;50.868;4.180;2024-03-23T01:21:24;8.00;99.90
20670;DHT22;10494;50.868;4.180;2024-03-23T01:23:50;7.90;99.90
20670;DHT22;10494;50.868;4.180;2024-03-23T01:26:16;7.90;99.90
20670;DHT22;10494;50.868;4.180;2024-03-23T01:28:41;7.90;99.90
20670;DHT22;10494;50.868;4.180;2024-03-23T01:31:07;7.90;99.90
20670;DHT22;10494;50.868;4.180;2024-03-23T01:33:32;7.90;99.90
20670;DHT22;10494;50.868;4.180;2024-03-23T01:35:58;7.90;99.90
20670;DHT22;10494;50.868;4.180;2024-03-23T01:38:24;7.90;99.90
20670;DHT22;10494;50.868;4.180;2024-03-23T01:40:49;8.00;99.90
20670;DHT22;10494;50.868;4.180;2024-03-23T01:43:15;8.00;99.90
20670;DHT22;10494;50.868;4.180;2024-03-23T01:45:40;8.10;99.90
20670;DHT22;10494;50.868;4.180;2024-03-23T01:48:06;8.10;99.90
20670;DHT22;10494;50.868;4.180;2024-03-23T01:50:33;8.20;99.90
20670;DHT22;10494;50.868;4.180;2024-03-23T01:53:02;8.20;99.90
20670;DHT22;10494;50.868;4.180;2024-03-23T01:55:28;8.30;99.90
20670;DHT22;10494;50.868;4.180;2024-03-23T01:57:56;8.40;99.90
20670;DHT22;10494;50.868;4.180;2024-03-23T02:00:22;8.50;99.90
20670;DHT22;10494;50.868;4.180;2024-03-23T02:02:48;8.50;99.90
20670;DHT22;10494;50.868;4.180;2024-03-23T02:05:14;8.50;99.90
20670;DHT22;10494;50.868;4.180;2024-03-23T02:07:41;8.50;99.90
20670;DHT22;10494;50.868;4.180;2024-03-23T02:10:07;8.60;99.90
20670;DHT22;10494;50.868;4.180;2024-03-23T02:12:33;8.60;99.90
20670;DHT22;10494;50.868;4.180;2024-03-23T02:15:00;8.60;99.90
20670;DHT22;10494;50.868;4.180;2024-03-23T02:17:26;8.70;99.90
20670;DHT22;10494;50.868;4.180;2024-03-23T02:19:51;8.70;99.90
20670;DHT22;10494;50.868;4.180;2024-03-23T02:22:17;8.80;99.90
20670;DHT22;10494;50.868;4.180;2024-03-23T02:24:43;8.80;99.90
20670;DHT22;10494;50.868;4.180;2024-03-23T02:27:09;8.90;99.90
20670;DHT22;10494;50.868;4.180;2024-03-23T02:29:34;8.90;99.90
20670;DHT22;10494;50.868;4.180;2024-03-23T02:32:00;8.80;99.90
20670;DHT22;10494;50.868;4.180;2024-03-23T02:34:26;8.70;99.90
20670;DHT22;10494;50.868;4.180;2024-03-23T02:36:52;8.80;99.90
20670;DHT22;10494;50.868;4.180;2024-03-23T02:39:18;8.70;99.90
20670;DHT22;10494;50.868;4.180;2024-03-23T02:41:43;8.80;99.90
20670;DHT22;10494;50.868;4.180;2024-03-23T02:44:09;8.70;99.90
20670;DHT22;10494;50.868;4.180;2024-03-23T02:46:40;8.90;99.90
20670;DHT22;10494;50.868;4.180;2024-03-23T02:49:05;8.90;99.90
20670;DHT22;10494;50.868;4.180;2024-03-23T02:51:31;8.80;99.90
20670;DHT22;10494;50.868;4.180;2024-03-23T02:53:57;8.80;99.90
20670;DHT22;10494;50.868;4.180;2024-03-23T02:56:23;8.70;99.90
20670;DHT22;10494;50.868;4.180;2024-03-23T02:58:48;8.80;99.90
20670;DHT22;10494;50.868;4.180;2024-03-23T03:01:14;8.80;99.90
20670;DHT22;10494;50.868;4.180;2024-03-23T03:03:40;8.80;99.90
20670;DHT22;10494;50.868;4.180;2024-03-23T03:06:05;8.80;99.90
20670;DHT22;10494;50.868;4.180;2024-03-23T03:08:31;8.70;99.90
20670;DHT22;10494;50.868;4.180;2024-03-23T03:10:57;8.70;99.90
20670;DHT22;10494;50.868;4.180;2024-03-23T03:13:22;8.70;99.90
20670;DHT22;10494;50.868;4.180;2024-03-23T03:15:48;8.60;99.90
20670;DHT22;10494;50.868;4.180;2024-03-23T03:18:13;8.50;99.90
20670;DHT22;10494;50.868;4.180;2024-03-23T03:20:39;8.50;99.90
20670;DHT22;10494;50.868;4.180;2024-03-23T03:23:06;8.40;99.90
20670;DHT22;10494;50.868;4.180;2024-03-23T03:25:32;8.40;99.90
20670;DHT22;10494;50.868;4.180;2024-03-23T03:27:57;8.30;99.90
20670;DHT22;10494;50.868;4.180;2024-03-23T03:30:23;8.30;99.90
20670;DHT22;10494;50.868;4.180;2024-03-23T03:32:49;8.30;99.90
20670;DHT22;10494;50.868;4.180;2024-03-23T03:35:15;8.30;99.90
20670;DHT22;10494;50.868;4.180;2024-03-23T03:37:41;8.20;99.90
20670;DHT22;10494;50.868;4.180;2024-03-23T03:40:07;8.20;99.90
20670;DHT22;10494;50.868;4.180;2024-03-23T03:42:34;8.10;99.90
20670;DHT22;10494;50.868;4.180;2024-03-23T03:45:00;8.00;99.90
20670;DHT22;10494;50.868;4.180;2024-03-23T03:47:26;7.90;99.90
20670;DHT22;10494;50.868;4.180;2024-03-23T03:49:51;7.90;99.90
20670;DHT22;10494;50.868;4.180;2024-03-23T03:52:17;7.90;99.90
20670;DHT22;10494;50.868;4.180;2024-03-23T03:54:42;7.90;99.90
20670;DHT22;10494;50.868;4.180;2024-03-23T03:57:08;7.90;99.90
20670;DHT22;10494;50.868;4.180;2024-03-23T03:59:34;7.90;99.90
20670;DHT22;10494;50.868;4.180;2024-03-23T04:01:59;7.90;99.90
20670;DHT22;10494;50.868;4.180;2024-03-23T04:04:25;7.90;99.90
20670;DHT22;10494;50.868;4.180;2024-03-23T04:07:01;7.80;99.90
20670;DHT22;10494;50.868;4.180;2024-03-23T04:09:27;7.80;99.90
20670;DHT22;10494;50.868;4.180;2024-03-23T04:11:53;7.70;99.90
20670;DHT22;10494;50.868;4.180;2024-03-23T04:14:19;7.80;99.90
20670;DHT22;10494;50.868;4.180;2024-03-23T04:16:45;7.80;99.90
20670;DHT22;10494;50.868;4.180;2024-03-23T04:19:10;7.80;99.90
20670;DHT22;10494;50.868;4.180;2024-03-23T04:21:37;7.80;99.90
20670;DHT22;10494;50.868;4.180;2024-03-23T04:24:04;7.90;99.90
20670;DHT22;10494;50.868;4.180;2024-03-23T04:26:29;7.90;99.90
20670;DHT22;10494;50.868;4.180;2024-03-23T04:28:55;7.90;99.90
20670;DHT22;10494;50.868;4.180;2024-03-23T04:31:21;7.90;99.90
20670;DHT22;10494;50.868;4.180;2024-03-23T04:33:47;7.90;99.90
20670;DHT22;10494;50.868;4.180;2024-03-23T04:36:12;7.90;99.90
20670;DHT22;10494;50.868;4.180;2024-03-23T04:38:38;8.00;99.90
20670;DHT22;10494;50.868;4.180;2024-03-23T04:41:04;7.80;99.90
20670;DHT22;10494;50.868;4.180;2024-03-23T04:43:29;7.90;99.90
20670;DHT22;10494;50.868;4.180;2024-03-23T04:45:55;7.80;99.90
20670;DHT22;10494;50.868;4.180;2024-03-23T04:48:22;7.70;99.90
20670;DHT22;10494;50.868;4.180;2024-03-23T04:50:48;7.60;99.90
20670;DHT22;10494;50.868;4.180;2024-03-23T04:53:15;7.50;99.90
20670;DHT22;10494;50.868;4.180;2024-03-23T04:55:41;7.40;99.90
20670;DHT22;10494;50.868;4.180;2024-03-23T04:58:07;7.40;99.90
20670;DHT22;10494;50.868;4.180;2024-03-23T05:00:32;7.40;99.90
20670;DHT22;10494;50.868;4.180;2024-03-23T05:02:58;7.40;99.90
20670;DHT22;10494;50.868;4.180;2024-03-23T05:05:24;7.40;99.90
20670;DHT22;10494;50.868;4.180;2024-03-23T05:07:49;7.50;99.90
20670;DHT22;10494;50.868;4.180;2024-03-23T05:10:15;7.50;99.90
20670;DHT22;10494;50.868;4.180;2024-03-23T05:12:41;7.50;99.90
20670;DHT22;10494;50.868;4.180;2024-03-23T05:15:07;7.60;99.90
20670;DHT22;10494;50.868;4.180;2024-03-23T05:17:33;7.70;99.90
20670;DHT22;10494;50.868;4.180;2024-03-23T05:19:59;7.80;99.90
20670;DHT22;10494;50.868;4.180;2024-03-23T05:22:25;7.70;99.90
20670;DHT22;10494;50.868;4.180;2024-03-23T05:24:52;7.70;99.90
20670;DHT22;10494;50.868;4.180;2024-03-23T05:27:18;7.70;99.90
20670;DHT22;10494;50.868;4.180;2024-03-23T05:29:44;7.70;99.90
20670;DHT22;10494;50.868;4.180;2024-03-23T05:32:09;7.70;99.90
20670;DHT22;10494;50.868;4.180;2024-03-23T05:34:35;7.60;99.90
20670;DHT22;10494;50.868;4.180;2024-03-23T05:37:00;7.60;99.90
20670;DHT22;10494;50.868;4.180;2024-03-23T05:39:26;7.70;99.90
20670;DHT22;10494;50.868;4.180;2024-03-23T05:41:52;7.60;99.90
20670;DHT22;10494;50.868;4.180;2024-03-23T05:44:18;7.60;99.90
20670;DHT22;10494;50.868;4.180;2024-03-23T05:46:43;7.60;99.90
20670;DHT22;10494;50.868;4.180;2024-03-23T05:49:14;7.60;99.90
20670;DHT22;10494;50.868;4.180;2024-03-23T05:51:39;7.70;99.90
20670;DHT22;10494;50.868;4.180;2024-03-23T05:54:05;7.70;99.90
20670;DHT22;10494;50.868;4.180;2024-03-23T05:56:31;7.70;99.90
20670;DHT22;10494;50.868;4.180;2024-03-23T05:58:57;7.70;99.90
20670;DHT22;10494;50.868;4.180;2024-03-23T06:01:22;7.60;99.90
20670;DHT22;10494;50.868;4.180;2024-03-23T06:03:48;7.50;99.90
20670;DHT22;10494;50.868;4.180;2024-03-23T06:06:14;7.50;99.90
20670;DHT22;10494;50.868;4.180;2024-03-23T06:08:39;7.50;99.90
20670;DHT22;10494;50.868;4.180;2024-03-23T06:11:05;7.70;99.90
20670;DHT22;10494;50.868;4.180;2024-03-23T06:13:34;7.70;99.90
20670;DHT22;10494;50.868;4.180;2024-03-23T06:16:01;7.80;99.90
20670;DHT22;10494;50.868;4.180;2024-03-23T06:18:26;7.70;99.90
20670;DHT22;10494;50.868;4.180;2024-03-23T06:20:53;7.70;99.90
20670;DHT22;10494;50.868;4.180;2024-03-23T06:23:18;7.70;99.90
20670;DHT22;10494;50.868;4.180;2024-03-23T06:25:46;7.70;99.90
20670;DHT22;10494;50.868;4.180;2024-03-23T06:28:12;7.60;99.90
20670;DHT22;10494;50.868;4.180;2024-03-23T06:30:37;7.60;99.90
20670;DHT22;10494;50.868;4.180;2024-03-23T06:33:03;7.70;99.90
20670;DHT22;10494;50.868;4.180;2024-03-23T06:35:29;7.90;99.90
20670;DHT22;10494;50.868;4.180;2024-03-23T06:37:54;8.00;99.90
20670;DHT22;10494;50.868;4.180;2024-03-23T06:40:20;7.90;99.90
20670;DHT22;10494;50.868;4.180;2024-03-23T06:42:45;7.90;99.90
20670;DHT22;10494;50.868;4.180;2024-03-23T06:45:11;8.00;99.90
20670;DHT22;10494;50.868;4.180;2024-03-23T06:47:37;7.90;99.90
20670;DHT22;10494;50.868;4.180;2024-03-23T06:50:03;8.00;99.90
20670;DHT22;10494;50.868;4.180;2024-03-23T06:52:30;8.10;99.90
20670;DHT22;10494;50.868;4.180;2024-03-23T06:54:56;7.90;99.90
20670;DHT22;10494;50.868;4.180;2024-03-23T06:57:22;7.70;99.90
20670;DHT22;10494;50.868;4.180;2024-03-23T06:59:47;7.40;99.90
20670;DHT22;10494;50.868;4.180;2024-03-23T07:02:13;7.40;99.90
20670;DHT22;10494;50.868;4.180;2024-03-23T07:04:38;7.20;99.90
20670;DHT22;10494;50.868;4.180;2024-03-23T07:07:07;7.10;99.90
20670;DHT22;10494;50.868;4.180;2024-03-23T07:09:32;6.90;99.90
20670;DHT22;10494;50.868;4.180;2024-03-23T07:11:58;6.80;99.90
20670;DHT22;10494;50.868;4.180;2024-03-23T07:14:24;6.80;99.90
20670;DHT22;10494;50.868;4.180;2024-03-23T07:16:51;6.90;99.90
20670;DHT22;10494;50.868;4.180;2024-03-23T07:19:17;6.90;99.90
20670;DHT22;10494;50.868;4.180;2024-03-23T07:21:46;7.00;99.90
20670;DHT22;10494;50.868;4.180;2024-03-23T07:24:13;7.40;99.90
20670;DHT22;10494;50.868;4.180;2024-03-23T07:26:39;7.60;99.90
20670;DHT22;10494;50.868;4.180;2024-03-23T07:29:05;7.80;99.90
20670;DHT22;10494;50.868;4.180;2024-03-23T07:31:30;8.10;99.90
20670;DHT22;10494;50.868;4.180;2024-03-23T07:33:57;8.40;99.90
20670;DHT22;10494;50.868;4.180;2024-03-23T07:36:23;8.80;99.90
20670;DHT22;10494;50.868;4.180;2024-03-23T07:38:48;9.30;99.90
20670;DHT22;10494;50.868;4.180;2024-03-23T07:41:16;10.00;99.90
20670;DHT22;10494;50.868;4.180;2024-03-23T07:43:45;10.10;1.00
20670;DHT22;10494;50.868;4.180;2024-03-23T07:46:12;10.20;99.90
20670;DHT22;10494;50.868;4.180;2024-03-23T07:48:38;10.60;99.90
20670;DHT22;10494;50.868;4.180;2024-03-23T07:51:06;11.30;99.90
20670;DHT22;10494;50.868;4.180;2024-03-23T07:53:33;12.00;99.90
20670;DHT22;10494;50.868;4.180;2024-03-23T07:56:05;12.00;99.90
20670;DHT22;10494;50.868;4.180;2024-03-23T07:58:31;11.50;99.90
20670;DHT22;10494;50.868;4.180;2024-03-23T08:01:04;11.90;99.90
20670;DHT22;10494;50.868;4.180;2024-03-23T08:03:30;12.20;99.90
20670;DHT22;10494;50.868;4.180;2024-03-23T08:05:56;12.90;99.90
20670;DHT22;10494;50.868;4.180;2024-03-23T08:08:22;13.30;99.90
20670;DHT22;10494;50.868;4.180;2024-03-23T08:10:52;12.90;99.90
20670;DHT22;10494;50.868;4.180;2024-03-23T08:13:18;12.80;99.90
20670;DHT22;10494;50.868;4.180;2024-03-23T08:15:44;13.00;99.90
20670;DHT22;10494;50.868;4.180;2024-03-23T08:18:12;13.50;99.90
20670;DHT22;10494;50.868;4.180;2024-03-23T08:20:38;14.00;99.90
20670;DHT22;10494;50.868;4.180;2024-03-23T08:23:06;13.00;99.90
20670;DHT22;10494;50.868;4.180;2024-03-23T08:25:31;12.60;99.90
20670;DHT22;10494;50.868;4.180;2024-03-23T08:27:57;13.00;99.90
20670;DHT22;10494;50.868;4.180;2024-03-23T08:30:23;12.80;99.90
20670;DHT22;10494;50.868;4.180;2024-03-23T08:32:49;12.60;99.90
20670;DHT22;10494;50.868;4.180;2024-03-23T08:35:14;12.90;99.90
20670;DHT22;10494;50.868;4.180;2024-03-23T08:37:40;13.40;99.90
20670;DHT22;10494;50.868;4.180;2024-03-23T08:40:06;13.60;99.90
20670;DHT22;10494;50.868;4.180;2024-03-23T08:42:34;14.00;99.90
20670;DHT22;10494;50.868;4.180;2024-03-23T08:44:59;14.90;99.90
20670;DHT22;10494;50.868;4.180;2024-03-23T08:47:25;15.10;99.90
20670;DHT22;10494;50.868;4.180;2024-03-23T08:49:51;15.10;99.90
20670;DHT22;10494;50.868;4.180;2024-03-23T08:52:16;15.20;99.90
20670;DHT22;10494;50.868;4.180;2024-03-23T08:54:42;14.70;99.90
20670;DHT22;10494;50.868;4.180;2024-03-23T08:57:08;14.90;99.90
20670;DHT22;10494;50.868;4.180;2024-03-23T08:59:34;14.80;99.90
20670;DHT22;10494;50.868;4.180;2024-03-23T09:02:00;14.00;99.90
20670;DHT22;10494;50.868;4.180;2024-03-23T09:04:25;13.10;99.90
20670;DHT22;10494;50.868;4.180;2024-03-23T09:06:51;13.20;99.90
20670;DHT22;10494;50.868;4.180;2024-03-23T09:09:17;13.20;99.90
20670;DHT22;10494;50.868;4.180;2024-03-23T09:11:43;13.30;99.90
20670;DHT22;10494;50.868;4.180;2024-03-23T09:14:08;13.70;99.90
20670;DHT22;10494;50.868;4.180;2024-03-23T09:16:34;14.40;99.90
20670;DHT22;10494;50.868;4.180;2024-03-23T09:19:00;15.00;99.90
20670;DHT22;10494;50.868;4.180;2024-03-23T09:21:26;15.20;99.90
20670;DHT22;10494;50.868;4.180;2024-03-23T09:23:51;14.50;99.90
20670;DHT22;10494;50.868;4.180;2024-03-23T09:26:17;13.70;99.90
20670;DHT22;10494;50.868;4.180;2024-03-23T09:28:43;13.90;99.90
20670;DHT22;10494;50.868;4.180;2024-03-23T09:31:09;14.50;99.90
20670;DHT22;10494;50.868;4.180;2024-03-23T09:33:39;15.40;99.90
20670;DHT22;10494;50.868;4.180;2024-03-23T09:36:05;14.80;99.90
20670;DHT22;10494;50.868;4.180;2024-03-23T09:38:31;14.20;99.90
20670;DHT22;10494;50.868;4.180;2024-03-23T09:40:57;14.00;99.90
20670;DHT22;10494;50.868;4.180;2024-03-23T09:43:23;13.40;99.90
20670;DHT22;10494;50.868;4.180;2024-03-23T09:45:49;13.00;99.90
20670;DHT22;10494;50.868;4.180;2024-03-23T09:48:15;13.30;99.90
20670;DHT22;10494;50.868;4.180;2024-03-23T09:50:42;13.00;99.90
20670;DHT22;10494;50.868;4.180;2024-03-23T09:53:10;12.80;99.90
20670;DHT22;10494;50.868;4.180;2024-03-23T09:55:37;12.70;99.90
20670;DHT22;10494;50.868;4.180;2024-03-23T09:58:03;12.80;99.90
20670;DHT22;10494;50.868;4.180;2024-03-23T10:00:33;12.80;99.90
20670;DHT22;10494;50.868;4.180;2024-03-23T10:02:59;12.50;99.90
20670;DHT22;10494;50.868;4.180;2024-03-23T10:05:30;12.30;99.90
20670;DHT22;10494;50.868;4.180;2024-03-23T10:10:43;12.20;99.90
20670;DHT22;10494;50.868;4.180;2024-03-23T10:13:10;12.00;99.90
20670;DHT22;10494;50.868;4.180;2024-03-23T10:15:37;11.90;99.90
20670;DHT22;10494;50.868;4.180;2024-03-23T10:18:19;12.00;99.90
20670;DHT22;10494;50.868;4.180;2024-03-23T10:20:52;11.70;99.90
20670;DHT22;10494;50.868;4.180;2024-03-23T10:23:32;11.30;99.90
20670;DHT22;10494;50.868;4.180;2024-03-23T10:31:20;11.10;99.90
20670;DHT22;10494;50.868;4.180;2024-03-23T10:33:47;11.30;99.90
20670;DHT22;10494;50.868;4.180;2024-03-23T10:36:13;11.70;99.90
20670;DHT22;10494;50.868;4.180;2024-03-23T10:38:41;11.90;99.90
20670;DHT22;10494;50.868;4.180;2024-03-23T10:41:08;11.70;99.90
20670;DHT22;10494;50.868;4.180;2024-03-23T10:43:35;11.80;99.90
20670;DHT22;10494;50.868;4.180;2024-03-23T10:46:01;11.70;99.90
20670;DHT22;10494;50.868;4.180;2024-03-23T10:48:27;11.60;99.90
20670;DHT22;10494;50.868;4.180;2024-03-23T10:50:53;11.50;99.90
20670;DHT22;10494;50.868;4.180;2024-03-23T10:53:25;11.90;99.90
20670;DHT22;10494;50.868;4.180;2024-03-23T10:55:52;12.20;99.90
20670;DHT22;10494;50.868;4.180;2024-03-23T10:58:44;12.40;99.90
20670;DHT22;10494;50.868;4.180;2024-03-23T11:01:14;12.60;99.90
20670;DHT22;10494;50.868;4.180;2024-03-23T11:03:45;12.30;99.90
20670;DHT22;10494;50.868;4.180;2024-03-23T11:14:43;13.30;99.90
20670;DHT22;10494;50.868;4.180;2024-03-23T11:17:09;13.40;99.90
20670;DHT22;10494;50.868;4.180;2024-03-23T11:19:38;13.00;99.40
20670;DHT22;10494;50.868;4.180;2024-03-23T11:22:05;12.70;99.30
20670;DHT22;10494;50.868;4.180;2024-03-23T11:24:31;12.90;99.90
20670;DHT22;10494;50.868;4.180;2024-03-23T11:26:57;12.90;99.90
20670;DHT22;10494;50.868;4.180;2024-03-23T11:29:29;13.10;99.90
20670;DHT22;10494;50.868;4.180;2024-03-23T11:31:55;13.00;99.50
20670;DHT22;10494;50.868;4.180;2024-03-23T11:34:21;12.70;99.90
20670;DHT22;10494;50.868;4.180;2024-03-23T11:36:47;12.70;99.90
20670;DHT22;10494;50.868;4.180;2024-03-23T11:39:20;12.70;99.90
20670;DHT22;10494;50.868;4.180;2024-03-23T11:41:51;13.00;99.90
20670;DHT22;10494;50.868;4.180;2024-03-23T11:44:21;13.20;99.90
20670;DHT22;10494;50.868;4.180;2024-03-23T11:46:50;13.20;99.90
20670;DHT22;10494;50.868;4.180;2024-03-23T11:51:51;13.10;99.90
20670;DHT22;10494;50.868;4.180;2024-03-23T11:54:23;13.30;99.90
20670;DHT22;10494;50.868;4.180;2024-03-23T11:57:00;13.20;99.90
20670;DHT22;10494;50.868;4.180;2024-03-23T11:59:36;13.20;99.90
20670;DHT22;10494;50.868;4.180;2024-03-23T12:02:10;12.70;99.30
20670;DHT22;10494;50.868;4.180;2024-03-23T12:04:40;12.40;98.70
20670;DHT22;10494;50.868;4.180;2024-03-23T12:09:35;11.90;99.80
20670;DHT22;10494;50.868;4.180;2024-03-23T12:14:33;10.60;99.90
20670;DHT22;10494;50.868;4.180;2024-03-23T12:17:14;10.20;99.90
20670;DHT22;10494;50.868;4.180;2024-03-23T12:19:41;10.20;99.90
20670;DHT22;10494;50.868;4.180;2024-03-23T12:22:10;10.30;99.90
20670;DHT22;10494;50.868;4.180;2024-03-23T12:24:36;10.60;99.90
20670;DHT22;10494;50.868;4.180;2024-03-23T12:27:03;10.90;99.90
20670;DHT22;10494;50.868;4.180;2024-03-23T12:29:34;10.90;99.90
20670;DHT22;10494;50.868;4.180;2024-03-23T12:32:00;11.20;99.90
20670;DHT22;10494;50.868;4.180;2024-03-23T12:34:26;11.40;99.90
20670;DHT22;10494;50.868;4.180;2024-03-23T12:36:52;11.60;99.90
20670;DHT22;10494;50.868;4.180;2024-03-23T12:39:18;11.90;99.90
20670;DHT22;10494;50.868;4.180;2024-03-23T12:41:44;11.80;99.90
20670;DHT22;10494;50.868;4.180;2024-03-23T12:44:10;11.90;99.90
20670;DHT22;10494;50.868;4.180;2024-03-23T12:46:37;12.00;99.90
20670;DHT22;10494;50.868;4.180;2024-03-23T12:49:04;12.00;99.90
20670;DHT22;10494;50.868;4.180;2024-03-23T12:51:30;12.10;99.90
20670;DHT22;10494;50.868;4.180;2024-03-23T12:53:56;12.40;99.90
20670;DHT22;10494;50.868;4.180;2024-03-23T12:56:22;12.30;99.90
20670;DHT22;10494;50.868;4.180;2024-03-23T12:58:47;12.20;99.90
20670;DHT22;10494;50.868;4.180;2024-03-23T13:01:20;12.30;99.90
20670;DHT22;10494;50.868;4.180;2024-03-23T13:03:47;12.50;98.70
20670;DHT22;10494;50.868;4.180;2024-03-23T13:06:13;12.80;97.30
20670;DHT22;10494;50.868;4.180;2024-03-23T13:08:39;13.00;97.10
20670;DHT22;10494;50.868;4.180;2024-03-23T13:11:06;13.00;95.60
20670;DHT22;10494;50.868;4.180;2024-03-23T13:13:37;12.30;97.50
20670;DHT22;10494;50.868;4.180;2024-03-23T13:16:03;12.20;99.50
20670;DHT22;10494;50.868;4.180;2024-03-23T13:18:30;11.90;99.90
20670;DHT22;10494;50.868;4.180;2024-03-23T13:20:55;12.00;99.90
20670;DHT22;10494;50.868;4.180;2024-03-23T13:23:21;12.00;99.90
20670;DHT22;10494;50.868;4.180;2024-03-23T13:25:55;12.20;99.90
20670;DHT22;10494;50.868;4.180;2024-03-23T13:28:22;12.00;99.90
20670;DHT22;10494;50.868;4.180;2024-03-23T13:30:54;11.70;99.90
20670;DHT22;10494;50.868;4.180;2024-03-23T13:33:20;11.20;99.90
20670;DHT22;10494;50.868;4.180;2024-03-23T13:36:04;11.10;99.90
20670;DHT22;10494;50.868;4.180;2024-03-23T13:38:30;11.00;99.90
20670;DHT22;10494;50.868;4.180;2024-03-23T13:40:57;11.10;99.90
20670;DHT22;10494;50.868;4.180;2024-03-23T13:43:24;11.40;99.90
20670;DHT22;10494;50.868;4.180;2024-03-23T13:45:53;11.60;1.00
20670;DHT22;10494;50.868;4.180;2024-03-23T13:48:24;11.90;1.00
20670;DHT22;10494;50.868;4.180;2024-03-23T13:51:05;12.10;1.00
20670;DHT22;10494;50.868;4.180;2024-03-23T13:53:31;12.20;99.90
20670;DHT22;10494;50.868;4.180;2024-03-23T13:56:00;12.00;99.90
20670;DHT22;10494;50.868;4.180;2024-03-23T13:58:26;11.70;99.90
20670;DHT22;10494;50.868;4.180;2024-03-23T14:00:53;11.50;99.90
20670;DHT22;10494;50.868;4.180;2024-03-23T14:03:18;11.40;99.90
20670;DHT22;10494;50.868;4.180;2024-03-23T14:05:44;11.60;99.90
20670;DHT22;10494;50.868;4.180;2024-03-23T14:08:11;11.80;99.90
20670;DHT22;10494;50.868;4.180;2024-03-23T14:10:40;12.00;99.90
20670;DHT22;10494;50.868;4.180;2024-03-23T14:13:05;12.30;99.90
20670;DHT22;10494;50.868;4.180;2024-03-23T14:15:31;12.10;99.90
20670;DHT22;10494;50.868;4.180;2024-03-23T14:17:57;12.30;99.90
20670;DHT22;10494;50.868;4.180;2024-03-23T14:20:23;12.60;99.90
20670;DHT22;10494;50.868;4.180;2024-03-23T14:22:49;12.40;99.90
20670;DHT22;10494;50.868;4.180;2024-03-23T14:25:15;12.10;99.90
20670;DHT22;10494;50.868;4.180;2024-03-23T14:27:41;11.80;99.90
20670;DHT22;10494;50.868;4.180;2024-03-23T14:30:07;11.70;99.90
20670;DHT22;10494;50.868;4.180;2024-03-23T14:32:34;11.90;99.90
20670;DHT22;10494;50.868;4.180;2024-03-23T14:35:06;12.10;99.90
20670;DHT22;10494;50.868;4.180;2024-03-23T14:37:39;12.40;99.90
20670;DHT22;10494;50.868;4.180;2024-03-23T14:40:05;12.50;99.90
20670;DHT22;10494;50.868;4.180;2024-03-23T14:42:32;12.70;99.90
20670;DHT22;10494;50.868;4.180;2024-03-23T14:44:58;12.90;99.90
20670;DHT22;10494;50.868;4.180;2024-03-23T14:47:23;13.00;99.90
20670;DHT22;10494;50.868;4.180;2024-03-23T14:49:49;13.10;99.90
20670;DHT22;10494;50.868;4.180;2024-03-23T14:52:19;12.80;99.90
20670;DHT22;10494;50.868;4.180;2024-03-23T14:54:46;12.80;99.90
20670;DHT22;10494;50.868;4.180;2024-03-23T14:57:12;13.00;99.90
20670;DHT22;10494;50.868;4.180;2024-03-23T14:59:38;13.30;99.90
20670;DHT22;10494;50.868;4.180;2024-03-23T15:02:04;13.30;99.90
20670;DHT22;10494;50.868;4.180;2024-03-23T15:04:30;13.30;98.10
20670;DHT22;10494;50.868;4.180;2024-03-23T15:06:55;13.10;98.50
20670;DHT22;10494;50.868;4.180;2024-03-23T15:09:21;13.00;98.50
20670;DHT22;10494;50.868;4.180;2024-03-23T15:11:47;13.00;97.70
20670;DHT22;10494;50.868;4.180;2024-03-23T15:14:12;12.90;97.60
20670;DHT22;10494;50.868;4.180;2024-03-23T15:16:38;12.80;98.40
20670;DHT22;10494;50.868;4.180;2024-03-23T15:19:03;12.80;98.10
20670;DHT22;10494;50.868;4.180;2024-03-23T15:21:31;12.80;97.80
20670;DHT22;10494;50.868;4.180;2024-03-23T15:23:57;12.80;97.00
20670;DHT22;10494;50.868;4.180;2024-03-23T15:26:23;12.70;98.10
20670;DHT22;10494;50.868;4.180;2024-03-23T15:28:49;12.70;98.40
20670;DHT22;10494;50.868;4.180;2024-03-23T15:31:23;12.90;98.70
20670;DHT22;10494;50.868;4.180;2024-03-23T15:33:49;13.00;97.60
20670;DHT22;10494;50.868;4.180;2024-03-23T15:36:15;13.20;98.10
20670;DHT22;10494;50.868;4.180;2024-03-23T15:38:41;13.20;95.80
20670;DHT22;10494;50.868;4.180;2024-03-23T15:41:06;13.00;95.00
20670;DHT22;10494;50.868;4.180;2024-03-23T15:43:33;13.00;95.50
20670;DHT22;10494;50.868;4.180;2024-03-23T15:46:00;12.80;95.10
20670;DHT22;10494;50.868;4.180;2024-03-23T15:48:27;12.70;95.10
20670;DHT22;10494;50.868;4.180;2024-03-23T15:51:03;12.70;94.90
20670;DHT22;10494;50.868;4.180;2024-03-23T15:53:31;12.40;95.40
20670;DHT22;10494;50.868;4.180;2024-03-23T15:56:01;12.30;95.90
20670;DHT22;10494;50.868;4.180;2024-03-23T15:58:29;12.30;95.40
20670;DHT22;10494;50.868;4.180;2024-03-23T16:00:59;12.30;94.60
20670;DHT22;10494;50.868;4.180;2024-03-23T16:03:25;12.50;93.00
20670;DHT22;10494;50.868;4.180;2024-03-23T16:05:55;12.40;92.60
20670;DHT22;10494;50.868;4.180;2024-03-23T16:08:22;12.50;91.80
20670;DHT22;10494;50.868;4.180;2024-03-23T16:10:48;12.50;91.60
20670;DHT22;10494;50.868;4.180;2024-03-23T16:13:14;12.30;91.50
20670;DHT22;10494;50.868;4.180;2024-03-23T16:15:39;12.10;92.00
20670;DHT22;10494;50.868;4.180;2024-03-23T16:18:06;12.20;91.40
20670;DHT22;10494;50.868;4.180;2024-03-23T16:20:31;12.10;91.80
20670;DHT22;10494;50.868;4.180;2024-03-23T16:22:59;12.10;91.80
20670;DHT22;10494;50.868;4.180;2024-03-23T16:25:25;12.00;92.70
20670;DHT22;10494;50.868;4.180;2024-03-23T16:27:51;12.00;93.10
20670;DHT22;10494;50.868;4.180;2024-03-23T16:30:16;11.70;93.40
20670;DHT22;10494;50.868;4.180;2024-03-23T16:32:42;11.50;93.20
20670;DHT22;10494;50.868;4.180;2024-03-23T16:35:08;11.50;93.60
20670;DHT22;10494;50.868;4.180;2024-03-23T16:37:37;11.60;93.40
20670;DHT22;10494;50.868;4.180;2024-03-23T16:40:02;11.60;93.90
20670;DHT22;10494;50.868;4.180;2024-03-23T16:42:29;11.60;94.20
20670;DHT22;10494;50.868;4.180;2024-03-23T16:44:55;11.70;94.00
20670;DHT22;10494;50.868;4.180;2024-03-23T16:47:21;11.70;94.60
20670;DHT22;10494;50.868;4.180;2024-03-23T16:49:46;11.80;94.80
20670;DHT22;10494;50.868;4.180;2024-03-23T16:52:12;11.70;94.50